Terminal Aerodrome Forecast
Issued by NWS

Home | Current Version | Previous Version | Text Only | Print | Product List | Glossary On
Versions: 1 2 3 4 5 6 7 8 9 10 11 12
328
FTUS46 KMTR 191141
TAFSNS
TAF
KSNS 191141Z 1912/2012 28005KT P6SM SKC
     FM191800 26010KT P6SM FEW035
     FM192100 28013KT P6SM SKC
     FM200300 26006KT P6SM SKC
     FM201000 VRB03KT P6SM SKC=

USA.gov is the U.S. government's official web portal to all federal, state and local government web resources and services.